Kansas City, Kansas
Current Conditions -  °F | °C
As of 1:54 PM on Wednesday 26 Nov 2014 (Local Time) from KMKC Reporting Station
Light Rain Light Rain  
Wind Chill: 31°   Ceiling: 2500
Heat Index: 40°   Visibility: 10mi
Dew Point: 30°   Wind: 18mph
Humidity: 68%   Direction: 300°WNW
Pressure: 30.05"   Gusts: 25mph
Location:  39.11°N, 94.63°W
Report Text: KMKC 261954Z 30016G22KT 10SM -RA OVC025 04/M01 A3005 RMK AO2 PK WND 29027/1911 RAB13E25B54 SLP181 P0000 T00441011
Loading
Personal Weather Stations






























Interactive Weather Map New forecast layout! Learn more

10-Day Weather Forecast

Advertisements
Track Severe Weather on mobile